Time;durP1;ratioP1;P1;durP2;ratioP2;P2;SDS_P1;SDS_P2;PMS_P1;PMS_P2;Temp;Humidity;BMP_temperature;BMP_pressure;BME280_temperature;BME280_humidity;BME280_pressure;Samples;Min_cycle;Max_cycle;Signal;HPM_P1;HPM_P2
2021/08/26 00:00:00;;;;;;;;;;;;;;;13.52;84.90;99332.02;1732226;81;22047;-83
2021/08/26 00:07:54;;;;;;;;;;;;;;;13.65;84.85;99321.98;1750195;81;20156;-84
2021/08/26 00:10:27;;;;;;;;;;;;;;;13.63;84.83;99318.19;1729611;81;20208;-84
2021/08/26 00:12:51;;;;;;;;;;;;;;;13.56;84.73;99316.00;1723511;81;20138;-81
2021/08/26 00:15:17;;;;;;;;;;;;;;;13.56;85.18;99312.02;1721464;81;20170;-82
2021/08/26 00:17:42;;;;;;;;;;;;;;;13.73;84.79;99306.41;1728508;81;20218;-84
2021/08/26 00:20:09;;;;;;;;;;;;;;;13.65;84.83;99307.38;1728035;81;20222;-84
2021/08/26 00:22:35;;;;;;;;;;;;;;;13.60;85.02;99302.67;1719387;81;20148;-81
2021/08/26 00:25:03;;;;;;;;;;;;;;;13.58;85.17;99298.08;1739278;81;22485;-84
2021/08/26 00:27:28;;;;;;;;;;;;;;;13.60;85.26;99296.03;1736483;81;20558;-83
2021/08/26 00:29:55;;;;;;;;;;;;;;;13.61;85.17;99292.87;1743522;81;20278;-85
2021/08/26 00:32:21;;;;;;;;;;;;;;;13.54;85.36;99286.21;1735912;81;20246;-84
2021/08/26 00:34:46;;;;;;;;;;;;;;;13.52;85.46;99286.92;1739092;81;20231;-82
2021/08/26 00:37:12;;;;;;;;;;;;;;;13.55;85.40;99285.20;1745229;81;21128;-84
2021/08/26 00:39:38;;;;;;;;;;;;;;;13.63;85.30;99272.28;1735552;81;20252;-87
2021/08/26 00:42:05;;;;;;;;;;;;;;;13.56;85.47;99270.91;1739837;81;20651;-84
2021/08/26 00:44:31;;;;;;;;;;;;;;;13.59;85.47;99264.40;1727981;81;20186;-84
2021/08/26 00:46:57;;;;;;;;;;;;;;;13.60;85.63;99264.72;1736939;81;20189;-85
2021/08/26 00:49:23;;;;;;;;;;;;;;;13.72;85.25;99261.81;1737959;81;21027;-84
2021/08/26 00:51:48;;;;;;;;;;;;;;;13.68;84.77;99250.47;1727518;81;20166;-85
2021/08/26 00:54:14;;;;;;;;;;;;;;;13.70;84.72;99248.42;1735523;81;20176;-84
2021/08/26 00:56:41;;;;;;;;;;;;;;;13.67;84.89;99248.82;1727753;81;20162;-84
2021/08/26 00:59:07;;;;;;;;;;;;;;;13.65;85.08;99237.89;1736943;81;20120;-85
2021/08/26 01:01:54;;;;;;;;;;;;;;;13.54;85.21;99242.45;1726476;81;21078;-81
2021/08/26 01:04:23;;;;;;;;;;;;;;;13.51;85.35;99238.05;1741669;81;20156;-83
2021/08/26 01:06:59;;;;;;;;;;;;;;;13.43;86.05;99231.08;1719592;81;20218;-81
2021/08/26 01:09:31;;;;;;;;;;;;;;;13.51;85.73;99230.91;1731932;81;20148;-81
2021/08/26 01:11:56;;;;;;;;;;;;;;;13.50;85.73;99225.31;1733259;81;20213;-80
2021/08/26 01:14:22;;;;;;;;;;;;;;;13.48;85.84;99227.32;1725026;81;21160;-82
2021/08/26 01:16:48;;;;;;;;;;;;;;;13.43;86.12;99228.43;1738584;81;20311;-81
2021/08/26 01:19:14;;;;;;;;;;;;;;;13.49;86.02;99228.16;1736206;81;20311;-83
2021/08/26 01:21:39;;;;;;;;;;;;;;;13.47;85.78;99223.05;1744566;81;20120;-82
2021/08/26 01:24:06;;;;;;;;;;;;;;;13.57;85.40;99216.84;1731236;81;20152;-85
2021/08/26 01:26:38;;;;;;;;;;;;;;;13.62;85.23;99217.58;1733339;81;21939;-82
2021/08/26 01:29:05;;;;;;;;;;;;;;;13.53;85.77;99226.24;1745047;81;20214;-83
2021/08/26 01:31:30;;;;;;;;;;;;;;;13.70;85.08;99211.28;1741489;81;20440;-83
2021/08/26 01:33:57;;;;;;;;;;;;;;;13.63;85.46;99218.70;1706390;81;20282;-82
2021/08/26 01:36:26;;;;;;;;;;;;;;;13.71;85.09;99212.41;1738512;81;20231;-84
2021/08/26 01:38:52;;;;;;;;;;;;;;;13.71;85.01;99208.95;1742497;81;22125;-84
2021/08/26 01:41:18;;;;;;;;;;;;;;;13.74;85.07;99206.70;1708947;81;20512;-83
2021/08/26 01:43:46;;;;;;;;;;;;;;;13.71;85.00;99205.77;1736724;81;20131;-84
2021/08/26 01:46:15;;;;;;;;;;;;;;;13.76;85.25;99208.64;1740970;81;20215;-84
2021/08/26 01:48:47;;;;;;;;;;;;;;;13.76;84.97;99202.52;1736494;81;20173;-84
2021/08/26 01:51:12;;;;;;;;;;;;;;;13.86;84.83;99198.98;1733659;81;22093;-84
2021/08/26 01:53:39;;;;;;;;;;;;;;;13.87;84.48;99202.45;1739728;81;20176;-83
2021/08/26 01:56:05;;;;;;;;;;;;;;;13.87;84.82;99205.91;1735516;81;20283;-83
2021/08/26 01:58:30;;;;;;;;;;;;;;;13.93;84.63;99207.76;1706370;81;20305;-84
2021/08/26 02:00:56;;;;;;;;;;;;;;;14.02;84.36;99212.91;1726937;81;20170;-83
2021/08/26 02:03:23;;;;;;;;;;;;;;;14.03;84.22;99211.38;1711209;81;20985;-83
2021/08/26 02:05:49;;;;;;;;;;;;;;;14.03;84.20;99216.68;1723991;81;20193;-83
2021/08/26 02:08:16;;;;;;;;;;;;;;;14.06;84.57;99206.15;1712601;83;20217;-82
2021/08/26 02:10:42;;;;;;;;;;;;;;;14.04;84.86;99200.23;1711947;82;20177;-83
2021/08/26 02:13:07;;;;;;;;;;;;;;;13.98;85.21;99199.19;1713928;83;20295;-83
2021/08/26 02:15:33;;;;;;;;;;;;;;;14.07;85.37;99194.52;1715704;83;21071;-83
2021/08/26 02:17:59;;;;;;;;;;;;;;;14.04;85.62;99194.92;1717668;82;20340;-84
2021/08/26 02:20:25;;;;;;;;;;;;;;;14.07;85.90;99186.55;1713978;82;20222;-84
2021/08/26 02:22:50;;;;;;;;;;;;;;;14.11;86.36;99185.14;1724793;82;20720;-83
2021/08/26 02:25:16;;;;;;;;;;;;;;;14.17;86.26;99179.02;1725513;82;20245;-82
2021/08/26 02:27:42;;;;;;;;;;;;;;;14.20;86.36;99173.30;1724448;83;21041;-83
2021/08/26 02:30:08;;;;;;;;;;;;;;;14.06;86.10;99165.00;1724491;83;20175;-83
2021/08/26 02:32:33;;;;;;;;;;;;;;;14.05;86.71;99175.33;1736338;82;20191;-82
2021/08/26 02:35:00;;;;;;;;;;;;;;;13.98;87.41;99176.63;1733729;82;20165;-83
2021/08/26 02:37:28;;;;;;;;;;;;;;;13.96;87.75;99178.16;1733065;82;20474;-83
2021/08/26 02:39:53;;;;;;;;;;;;;;;13.90;88.62;99175.50;1731445;81;21169;-83
2021/08/26 02:42:19;;;;;;;;;;;;;;;13.89;88.72;99176.02;1744574;81;20157;-83
2021/08/26 02:44:47;;;;;;;;;;;;;;;13.83;89.47;99169.67;1713269;82;20639;-82
2021/08/26 02:47:12;;;;;;;;;;;;;;;13.79;89.69;99169.76;1712704;83;20144;-81
2021/08/26 02:49:41;;;;;;;;;;;;;;;13.71;90.41;99169.15;1711380;83;20458;-82
2021/08/26 02:52:07;;;;;;;;;;;;;;;13.65;91.10;99166.26;1712249;82;20136;-81
2021/08/26 02:54:33;;;;;;;;;;;;;;;13.68;91.27;99164.24;1690754;83;21816;-83
2021/08/26 02:56:58;;;;;;;;;;;;;;;13.70;90.94;99162.20;1711934;83;20131;-84
2021/08/26 02:59:24;;;;;;;;;;;;;;;13.75;91.41;99162.41;1715217;83;20610;-85
2021/08/26 03:01:51;;;;;;;;;;;;;;;13.74;92.43;99166.09;1714041;83;20191;-83
2021/08/26 03:04:17;;;;;;;;;;;;;;;13.62;93.31;99162.68;1711703;82;21034;-83
2021/08/26 03:06:42;;;;;;;;;;;;;;;13.64;93.52;99156.69;1726551;81;20302;-82
2021/08/26 03:09:10;;;;;;;;;;;;;;;13.68;93.72;99155.77;1739310;81;20174;-84
2021/08/26 03:11:35;;;;;;;;;;;;;;;13.59;94.73;99148.48;1775647;80;20116;-82
2021/08/26 03:14:01;;;;;;;;;;;;;;;13.56;95.15;99148.08;1778836;80;20185;-83
2021/08/26 03:16:27;;;;;;;;;;;;;;;13.55;95.58;99149.92;1767376;80;21137;-81
2021/08/26 03:18:52;;;;;;;;;;;;;;;13.50;96.44;99148.39;1770491;80;20245;-83
2021/08/26 03:21:18;;;;;;;;;;;;;;;13.57;96.19;99147.87;1762818;80;20296;-85
2021/08/26 03:23:44;;;;;;;;;;;;;;;13.56;96.14;99147.56;1766482;80;20449;-85
2021/08/26 03:26:09;;;;;;;;;;;;;;;13.41;97.25;99145.61;1767932;80;20152;-84
2021/08/26 03:28:35;;;;;;;;;;;;;;;13.40;97.83;99147.94;1734874;80;21168;-83
2021/08/26 03:31:00;;;;;;;;;;;;;;;13.37;98.07;99140.38;1754155;80;20192;-82
2021/08/26 03:33:26;;;;;;;;;;;;;;;13.43;97.96;99145.70;1757353;80;20284;-84
2021/08/26 03:35:52;;;;;;;;;;;;;;;13.37;98.69;99144.36;1760339;80;20133;-81
2021/08/26 03:38:20;;;;;;;;;;;;;;;13.32;99.05;99141.47;1745940;81;20174;-84
2021/08/26 03:40:46;;;;;;;;;;;;;;;13.33;99.12;99137.78;1734874;81;21188;-83
2021/08/26 03:43:12;;;;;;;;;;;;;;;13.23;99.94;99144.27;1731995;81;20594;-83
2021/08/26 03:45:39;;;;;;;;;;;;;;;13.24;100.00;99136.64;1744292;81;20187;-83
2021/08/26 03:48:06;;;;;;;;;;;;;;;13.29;100.00;99134.20;1713280;81;20143;-84
2021/08/26 03:50:31;;;;;;;;;;;;;;;13.33;100.00;99140.43;1735845;81;20212;-82
2021/08/26 03:52:57;;;;;;;;;;;;;;;13.27;100.00;99137.56;1752712;80;21848;-84
2021/08/26 03:55:22;;;;;;;;;;;;;;;13.21;100.00;99131.73;1764225;80;20143;-82
2021/08/26 03:57:48;;;;;;;;;;;;;;;13.28;100.00;99128.61;1761604;80;20244;-83
2021/08/26 04:00:14;;;;;;;;;;;;;;;13.32;100.00;99130.86;1764081;80;20451;-80
2021/08/26 04:02:40;;;;;;;;;;;;;;;13.38;100.00;99130.09;1764221;80;20197;-83
2021/08/26 04:05:06;;;;;;;;;;;;;;;13.34;100.00;99130.17;1766267;80;21179;-80
2021/08/26 04:07:31;;;;;;;;;;;;;;;13.42;100.00;99131.31;1765927;80;20189;-81
2021/08/26 04:10:01;;;;;;;;;;;;;;;13.50;100.00;99123.20;1758371;80;20214;-82
2021/08/26 04:12:27;;;;;;;;;;;;;;;13.51;100.00;99130.63;1760373;80;21129;-82
2021/08/26 04:14:53;;;;;;;;;;;;;;;13.58;100.00;99130.95;1696843;82;20148;-82
2021/08/26 04:17:21;;;;;;;;;;;;;;;13.50;100.00;99123.20;1733801;81;21138;-83
2021/08/26 04:19:48;;;;;;;;;;;;;;;13.53;100.00;99122.80;1767322;80;20386;-81
2021/08/26 04:22:14;;;;;;;;;;;;;;;13.60;100.00;99120.95;1769182;80;20113;-82
2021/08/26 04:24:40;;;;;;;;;;;;;;;13.57;100.00;99126.66;1735571;80;20255;-83
2021/08/26 04:27:05;;;;;;;;;;;;;;;13.58;100.00;99124.33;1771233;80;20168;-84
2021/08/26 04:29:31;;;;;;;;;;;;;;;13.42;100.00;99116.23;1739830;80;21186;-83
2021/08/26 04:31:56;;;;;;;;;;;;;;;13.34;100.00;99114.27;1769529;80;20243;-83
2021/08/26 04:34:22;;;;;;;;;;;;;;;13.39;100.00;99111.34;1765600;80;20512;-82
2021/08/26 04:36:47;;;;;;;;;;;;;;;13.37;100.00;99108.56;1778992;80;20630;-82
2021/08/26 04:39:13;;;;;;;;;;;;;;;13.39;100.00;99105.19;1773415;80;20179;-82
2021/08/26 04:41:40;;;;;;;;;;;;;;;13.38;100.00;99103.58;1768826;80;22576;-82
2021/08/26 04:44:06;;;;;;;;;;;;;;;13.37;100.00;99100.61;1730238;80;20209;-83
2021/08/26 04:46:32;;;;;;;;;;;;;;;13.40;100.00;99101.53;1761134;80;20207;-83
2021/08/26 04:48:57;;;;;;;;;;;;;;;13.36;100.00;99100.29;1768764;80;20369;-82
2021/08/26 04:51:23;;;;;;;;;;;;;;;13.34;100.00;99102.34;1749491;80;20124;-83
2021/08/26 04:53:48;;;;;;;;;;;;;;;13.28;100.00;99096.79;1751144;80;21091;-82
2021/08/26 04:56:17;;;;;;;;;;;;;;;13.26;100.00;99092.70;1724163;82;20134;-84
2021/08/26 04:58:43;;;;;;;;;;;;;;;13.29;100.00;99097.08;1744548;81;20138;-84
2021/08/26 05:01:08;;;;;;;;;;;;;;;13.40;100.00;99090.92;1729207;80;20203;-84
2021/08/26 05:03:34;;;;;;;;;;;;;;;13.41;100.00;99087.27;1738867;80;20147;-84
2021/08/26 05:06:02;;;;;;;;;;;;;;;13.44;100.00;99093.50;1743590;80;21090;-84
2021/08/26 05:08:28;;;;;;;;;;;;;;;13.51;100.00;99085.02;1759663;80;20558;-84
2021/08/26 05:10:54;;;;;;;;;;;;;;;13.49;100.00;99089.72;1730335;80;20133;-84
2021/08/26 05:13:19;;;;;;;;;;;;;;;13.50;100.00;99091.37;1759035;80;20122;-83
2021/08/26 05:15:45;;;;;;;;;;;;;;;13.54;100.00;99087.27;1757726;80;20463;-81
2021/08/26 05:18:11;;;;;;;;;;;;;;;13.46;100.00;99088.80;1755059;80;21099;-82
2021/08/26 05:20:36;;;;;;;;;;;;;;;13.47;100.00;99094.42;1754042;80;20256;-85
2021/08/26 05:23:02;;;;;;;;;;;;;;;13.50;100.00;99090.53;1755517;80;20220;-82
2021/08/26 05:25:28;;;;;;;;;;;;;;;13.50;100.00;99088.72;1761059;80;20133;-83
2021/08/26 05:27:53;;;;;;;;;;;;;;;13.40;100.00;99086.95;1750736;80;20125;-84
2021/08/26 05:30:19;;;;;;;;;;;;;;;13.37;100.00;99090.00;1751993;80;21011;-84
2021/08/26 05:32:44;;;;;;;;;;;;;;;13.33;100.00;99088.27;1755892;79;20979;-84
2021/08/26 05:35:10;;;;;;;;;;;;;;;13.25;100.00;99078.63;1761116;80;20143;-84
2021/08/26 05:37:36;;;;;;;;;;;;;;;13.37;100.00;99084.70;1763948;80;20171;-84
2021/08/26 05:40:03;;;;;;;;;;;;;;;13.32;100.00;99077.83;1763556;80;20112;-83
2021/08/26 05:42:28;;;;;;;;;;;;;;;13.26;100.00;99074.95;1755791;80;21049;-84
2021/08/26 05:44:54;;;;;;;;;;;;;;;13.37;100.00;99080.72;1757415;80;20184;-85
2021/08/26 05:47:21;;;;;;;;;;;;;;;13.44;100.00;99073.09;1757407;79;20201;-84
2021/08/26 05:49:47;;;;;;;;;;;;;;;13.44;100.00;99072.28;1757391;79;20125;-84
2021/08/26 05:52:12;;;;;;;;;;;;;;;13.48;100.00;99074.02;1760490;80;20178;-84
2021/08/26 05:54:38;;;;;;;;;;;;;;;13.49;100.00;99075.14;1763846;80;21107;-84
2021/08/26 05:57:06;;;;;;;;;;;;;;;13.61;100.00;99073.52;1760457;80;20143;-84
2021/08/26 05:59:31;;;;;;;;;;;;;;;13.69;100.00;99073.00;1756434;80;20165;-84
2021/08/26 06:01:59;;;;;;;;;;;;;;;13.68;100.00;99076.17;1753140;80;20230;-84
2021/08/26 06:04:25;;;;;;;;;;;;;;;13.74;100.00;99079.86;1743037;80;20218;-83
2021/08/26 06:06:50;;;;;;;;;;;;;;;13.70;100.00;99087.91;1754650;80;21054;-83
2021/08/26 06:09:17;;;;;;;;;;;;;;;13.65;100.00;99084.02;1764895;80;20173;-83
2021/08/26 06:11:43;;;;;;;;;;;;;;;13.73;100.00;99090.16;1759827;80;20193;-84
2021/08/26 06:14:10;;;;;;;;;;;;;;;13.74;100.00;99087.82;1784870;78;20132;-83
2021/08/26 06:16:35;;;;;;;;;;;;;;;13.80;100.00;99093.64;1749016;80;20176;-84
2021/08/26 06:19:01;;;;;;;;;;;;;;;13.80;100.00;99090.98;1748370;81;21097;-84
2021/08/26 06:21:27;;;;;;;;;;;;;;;13.84;100.00;99092.20;1749174;80;20490;-81
2021/08/26 06:23:52;;;;;;;;;;;;;;;13.89;100.00;99094.24;1776025;78;20251;-83
2021/08/26 06:26:18;;;;;;;;;;;;;;;13.95;100.00;99099.58;1746329;80;20708;-85
2021/08/26 06:28:43;;;;;;;;;;;;;;;14.00;100.00;99090.48;1748814;81;20151;-85
2021/08/26 06:31:09;;;;;;;;;;;;;;;13.95;100.00;99094.27;1744029;81;21070;-86
2021/08/26 06:33:35;;;;;;;;;;;;;;;13.96;100.00;99095.88;1749220;81;21543;-84
2021/08/26 06:36:00;;;;;;;;;;;;;;;14.05;100.00;99087.73;1756194;81;20154;-83
2021/08/26 06:38:26;;;;;;;;;;;;;;;14.11;100.00;99086.91;1721516;81;20148;-80
2021/08/26 06:40:51;;;;;;;;;;;;;;;14.18;100.00;99084.55;1742268;81;20344;-82
2021/08/26 06:43:17;;;;;;;;;;;;;;;14.19;100.00;99083.52;1745870;81;21230;-81
2021/08/26 06:45:42;;;;;;;;;;;;;;;14.26;100.00;99083.53;1745949;81;20136;-83
2021/08/26 06:48:08;;;;;;;;;;;;;;;14.26;100.00;99082.20;1750382;81;20159;-83
2021/08/26 06:50:33;;;;;;;;;;;;;;;14.39;100.00;99087.16;1746554;81;20120;-83
2021/08/26 06:52:59;;;;;;;;;;;;;;;14.47;100.00;99083.78;1742591;81;20158;-79
2021/08/26 06:55:24;;;;;;;;;;;;;;;14.51;100.00;99082.35;1744723;81;21147;-81
2021/08/26 06:57:50;;;;;;;;;;;;;;;14.43;100.00;99091.05;1745952;81;20249;-85
2021/08/26 07:00:16;;;;;;;;;;;;;;;14.53;100.00;99088.27;1747514;81;20136;-83
2021/08/26 07:02:41;;;;;;;;;;;;;;;14.49;100.00;99087.03;1749117;81;20250;-84
2021/08/26 07:05:07;;;;;;;;;;;;;;;14.50;100.00;99088.67;1749320;81;20199;-83
2021/08/26 07:07:33;;;;;;;;;;;;;;;14.52;100.00;99089.80;1732653;81;21093;-83
2021/08/26 07:09:59;;;;;;;;;;;;;;;14.48;100.00;99088.08;1723468;81;20228;-81
2021/08/26 07:12:30;;;;;;;;;;;;;;;14.52;100.00;99093.78;1736943;81;20484;-83
2021/08/26 07:14:52;;;;;;;;;;;;;;;14.55;100.00;99097.35;1731491;81;20214;-81
2021/08/26 07:17:18;;;;;;;;;;;;;;;14.64;100.00;99089.48;1733597;81;20487;-83
2021/08/26 07:19:44;;;;;;;;;;;;;;;14.75;100.00;99088.03;1726617;81;21291;-87
2021/08/26 07:22:10;;;;;;;;;;;;;;;14.67;100.00;99089.08;1731279;81;20166;-85
2021/08/26 07:24:36;;;;;;;;;;;;;;;14.53;100.00;99092.77;1732301;81;20225;-83
2021/08/26 07:27:02;;;;;;;;;;;;;;;14.72;100.00;99090.58;1722452;81;21202;-83
2021/08/26 07:29:28;;;;;;;;;;;;;;;14.67;100.00;99089.08;1735650;81;20196;-83
2021/08/26 07:31:53;;;;;;;;;;;;;;;14.72;100.00;99083.94;1754588;80;21207;-83
2021/08/26 07:34:19;;;;;;;;;;;;;;;14.72;100.00;99081.28;1750608;79;20165;-85
2021/08/26 07:36:44;;;;;;;;;;;;;;;14.83;100.00;99086.98;1754383;80;20552;-84
2021/08/26 07:39:10;;;;;;;;;;;;;;;14.97;100.00;99088.55;1739717;80;20420;-86
2021/08/26 07:41:36;;;;;;;;;;;;;;;15.02;100.00;99087.43;1739531;80;20245;-85
2021/08/26 07:44:02;;;;;;;;;;;;;;;15.16;100.00;99090.00;1739818;80;21003;-86
2021/08/26 07:46:29;;;;;;;;;;;;;;;15.19;100.00;99090.91;1735698;80;20242;-87
2021/08/26 07:48:54;;;;;;;;;;;;;;;15.08;100.00;99087.88;1740321;80;20528;-82
2021/08/26 07:51:20;;;;;;;;;;;;;;;15.10;100.00;99092.19;1735684;80;20258;-86
2021/08/26 07:53:45;;;;;;;;;;;;;;;15.08;100.00;99091.88;1736545;80;20177;-85
2021/08/26 07:56:13;;;;;;;;;;;;;;;15.14;100.00;99089.41;1704135;80;20727;-82
2021/08/26 07:58:38;;;;;;;;;;;;;;;15.13;100.00;99093.89;1740117;80;20187;-83
2021/08/26 08:01:04;;;;;;;;;;;;;;;15.15;100.00;99089.70;1732380;80;20136;-84
2021/08/26 08:03:32;;;;;;;;;;;;;;;15.24;100.00;99092.41;1728989;80;20539;-85
2021/08/26 08:05:57;;;;;;;;;;;;;;;15.21;100.00;99091.50;1729897;80;20183;-84
2021/08/26 08:08:22;;;;;;;;;;;;;;;15.23;100.00;99089.47;1758189;80;21083;-86
2021/08/26 08:10:49;;;;;;;;;;;;;;;15.28;100.00;99090.97;1763247;80;20601;-83
2021/08/26 08:13:16;;;;;;;;;;;;;;;15.38;100.00;99090.00;1773813;80;20104;-82
2021/08/26 08:15:44;;;;;;;;;;;;;;;15.41;100.00;99092.23;1772645;80;20208;-85
2021/08/26 08:18:10;;;;;;;;;;;;;;;15.53;100.00;99092.34;1768397;80;20624;-84
2021/08/26 08:20:36;;;;;;;;;;;;;;;15.47;100.00;99097.72;1766329;80;21172;-84
2021/08/26 08:23:01;;;;;;;;;;;;;;;15.22;100.00;99093.14;1763541;80;20171;-84
2021/08/26 08:25:27;;;;;;;;;;;;;;;15.12;100.00;99087.45;1768190;80;20194;-84
2021/08/26 08:27:53;;;;;;;;;;;;;;;15.18;100.00;99087.94;1734978;80;20130;-83
2021/08/26 08:30:19;;;;;;;;;;;;;;;15.34;100.00;99091.45;1769214;80;20436;-86
2021/08/26 08:32:44;;;;;;;;;;;;;;;15.39;100.00;99090.28;1735548;80;21972;-84
2021/08/26 08:35:10;;;;;;;;;;;;;;;15.35;100.00;99093.09;1760486;80;20173;-85
2021/08/26 08:37:36;;;;;;;;;;;;;;;15.30;100.00;99087.57;1770631;80;20279;-85
2021/08/26 08:40:01;;;;;;;;;;;;;;;15.48;100.00;99083.40;1763421;80;20570;-85
2021/08/26 08:42:31;;;;;;;;;;;;;;;15.49;100.00;99090.33;1737897;80;20106;-85
2021/08/26 08:44:54;;;;;;;;;;;;;;;15.56;100.00;99086.59;1769748;80;20228;-86
2021/08/26 08:47:20;;;;;;;;;;;;;;;15.54;100.00;99095.84;1769421;80;20153;-84
2021/08/26 08:49:50;;;;;;;;;;;;;;;15.64;100.00;99093.51;1765953;80;20372;-83
2021/08/26 08:52:13;;;;;;;;;;;;;;;15.69;100.00;99091.04;1780710;80;20537;-84
2021/08/26 08:54:39;;;;;;;;;;;;;;;15.71;100.00;99095.62;1750257;80;20208;-82
2021/08/26 08:57:04;;;;;;;;;;;;;;;15.69;100.00;99093.70;1754944;80;21052;-86
2021/08/26 08:59:30;;;;;;;;;;;;;;;15.61;100.00;99096.59;1747211;80;20194;-83
2021/08/26 09:01:56;;;;;;;;;;;;;;;15.59;100.00;99098.14;1717769;81;20244;-81
2021/08/26 09:04:22;;;;;;;;;;;;;;;15.62;100.00;99099.05;1748563;80;20511;-82
2021/08/26 09:06:50;;;;;;;;;;;;;;;15.65;100.00;99100.47;1747850;81;20173;-81
2021/08/26 09:09:16;;;;;;;;;;;;;;;15.76;100.00;99097.11;1718327;81;21129;-80
2021/08/26 09:11:53;;;;;;;;;;;;;;;15.85;100.00;99092.88;1748546;81;20182;-81
2021/08/26 09:14:19;;;;;;;;;;;;;;;15.79;100.00;99099.89;1747432;81;20212;-81
2021/08/26 09:16:47;;;;;;;;;;;;;;;15.90;100.00;99101.05;1752727;81;20258;-79
2021/08/26 09:19:23;;;;;;;;;;;;;;;15.76;100.00;99090.45;1726658;81;20218;-80
2021/08/26 09:21:49;;;;;;;;;;;;;;;15.82;100.00;99090.64;1781256;80;21903;-81
2021/08/26 09:24:17;;;;;;;;;;;;;;;15.83;100.00;99101.60;1761364;80;20086;-83
2021/08/26 09:26:46;;;;;;;;;;;;;;;15.84;100.00;99095.25;1758629;80;20146;-80
2021/08/26 09:29:11;;;;;;;;;;;;;;;15.80;100.00;99094.88;1758980;80;20122;-83
2021/08/26 09:31:38;;;;;;;;;;;;;;;15.92;100.00;99094.45;1724074;80;20175;-81
2021/08/26 09:34:13;;;;;;;;;;;;;;;16.00;100.00;99100.55;1755578;80;22186;-81
2021/08/26 09:36:48;;;;;;;;;;;;;;;16.04;100.00;99095.91;1757081;80;20197;-82
2021/08/26 09:39:17;;;;;;;;;;;;;;;16.07;100.00;99090.67;1754208;80;20230;-86
2021/08/26 09:41:58;;;;;;;;;;;;;;;16.14;100.00;99092.24;1763302;80;20909;-80
2021/08/26 09:44:35;;;;;;;;;;;;;;;16.17;100.00;99088.83;1760766;80;20135;-81
2021/08/26 09:47:02;;;;;;;;;;;;;;;16.17;100.00;99086.17;1780165;79;20490;-82
2021/08/26 09:49:29;;;;;;;;;;;;;;;16.23;100.00;99087.95;1776625;80;20166;-82
2021/08/26 09:52:09;;;;;;;;;;;;;;;16.30;100.00;99090.05;1781322;78;20125;-82
2021/08/26 09:54:40;;;;;;;;;;;;;;;16.36;100.00;99093.17;1777244;78;20143;-84
2021/08/26 09:57:07;;;;;;;;;;;;;;;16.38;100.00;99090.29;1776738;80;20513;-84
2021/08/26 09:59:45;;;;;;;;;;;;;;;16.35;100.00;99096.06;1711409;80;21096;-84
2021/08/26 10:02:12;;;;;;;;;;;;;;;16.36;100.00;99091.84;1749105;81;37411;-79
2021/08/26 10:04:38;;;;;;;;;;;;;;;16.38;100.00;99090.29;1776227;80;20089;-81
2021/08/26 10:07:06;;;;;;;;;;;;;;;16.48;100.00;99092.74;1752447;81;20823;-83
2021/08/26 10:09:32;;;;;;;;;;;;;;;16.56;100.00;99086.80;1756110;80;20168;-82
2021/08/26 10:11:57;;;;;;;;;;;;;;;16.63;100.00;99091.03;1747879;81;21136;-83
2021/08/26 10:14:23;;;;;;;;;;;;;;;16.72;100.00;99085.39;1754213;80;20173;-82
2021/08/26 10:16:49;;;;;;;;;;;;;;;16.78;100.00;99085.34;1750483;81;20444;-81
2021/08/26 10:19:17;;;;;;;;;;;;;;;16.92;99.81;99086.53;1753505;80;20820;-81
2021/08/26 10:21:44;;;;;;;;;;;;;;;17.00;99.37;99076.38;1752190;80;20206;-81
2021/08/26 10:24:12;;;;;;;;;;;;;;;17.09;100.00;99083.56;1782788;80;21223;-81
2021/08/26 10:26:39;;;;;;;;;;;;;;;17.21;100.00;99081.77;1781653;79;20173;-82
2021/08/26 10:29:06;;;;;;;;;;;;;;;17.40;99.99;99081.69;1784378;80;20184;-80
2021/08/26 10:31:33;;;;;;;;;;;;;;;17.46;98.05;99073.30;1752074;80;20223;-80
2021/08/26 10:34:20;;;;;;;;;;;;;;;17.58;96.06;99075.48;1754809;81;20137;-82
2021/08/26 10:36:45;;;;;;;;;;;;;;;17.67;95.58;99075.98;1757307;81;20294;-83
2021/08/26 10:39:31;;;;;;;;;;;;;;;17.89;95.50;99079.75;1741715;81;20182;-85
2021/08/26 10:41:58;;;;;;;;;;;;;;;17.92;94.28;99085.96;1774567;80;20201;-82
2021/08/26 10:44:27;;;;;;;;;;;;;;;17.98;94.15;99082.91;1779162;80;20173;-83
2021/08/26 10:46:54;;;;;;;;;;;;;;;17.96;93.16;99082.83;1772945;80;20175;-83
2021/08/26 10:49:21;;;;;;;;;;;;;;;17.90;91.81;99089.39;1777563;80;21316;-86
2021/08/26 10:51:51;;;;;;;;;;;;;;;18.02;92.31;99085.91;1759286;79;20121;-84
2021/08/26 10:54:32;;;;;;;;;;;;;;;18.16;91.86;99087.31;1760860;79;20511;-86
2021/08/26 10:57:18;;;;;;;;;;;;;;;18.12;90.79;99095.52;1759153;79;20145;-83
2021/08/26 10:59:44;;;;;;;;;;;;;;;18.21;91.29;99100.80;1759559;79;20168;-79
2021/08/26 11:02:31;;;;;;;;;;;;;;;18.26;90.95;99091.56;1756408;79;21261;-83
2021/08/26 11:05:34;;;;;;;;;;;;;;;18.25;89.54;99089.92;1750465;79;20158;-85
2021/08/26 11:08:00;;;;;;;;;;;;;;;18.37;90.12;99093.14;1772521;80;20472;-80
2021/08/26 11:10:28;;;;;;;;;;;;;;;18.21;88.21;99103.48;1773337;80;20141;-83
2021/08/26 11:13:26;;;;;;;;;;;;;;;18.15;88.16;99099.06;1765929;80;20188;-86
2021/08/26 11:15:52;;;;;;;;;;;;;;;18.04;87.89;99102.55;1759581;80;21117;-88
2021/08/26 11:18:30;;;;;;;;;;;;;;;18.28;89.36;99100.15;1764544;80;20172;-87
2021/08/26 11:20:56;;;;;;;;;;;;;;;18.34;88.20;99098.41;1770352;80;20119;-87
2021/08/26 11:23:31;;;;;;;;;;;;;;;18.43;87.05;99094.34;1766323;80;20192;-83
2021/08/26 11:25:57;;;;;;;;;;;;;;;18.45;87.24;99092.78;1743221;80;20275;-81
2021/08/26 11:28:30;;;;;;;;;;;;;;;18.50;86.24;99092.88;1763955;80;21124;-82
2021/08/26 11:31:12;;;;;;;;;;;;;;;18.53;86.97;99089.73;1762440;80;20114;-83
2021/08/26 11:33:38;;;;;;;;;;;;;;;18.75;86.81;99086.45;1771175;80;20475;-85
2021/08/26 11:36:12;;;;;;;;;;;;;;;18.87;86.50;99093.95;1768845;79;20122;-83
2021/08/26 11:38:45;;;;;;;;;;;;;;;18.87;85.27;99089.94;1768650;79;20216;-82
2021/08/26 11:41:13;;;;;;;;;;;;;;;18.99;86.64;99095.27;1761608;79;21145;-84
2021/08/26 11:43:45;;;;;;;;;;;;;;;19.07;86.12;99090.07;1765433;80;20119;-86
2021/08/26 11:46:12;;;;;;;;;;;;;;;19.09;85.12;99081.27;1765648;79;20235;-85
2021/08/26 11:48:48;;;;;;;;;;;;;;;19.09;83.52;99087.42;1763096;79;20501;-82
2021/08/26 11:51:26;;;;;;;;;;;;;;;19.17;83.55;99084.39;1761738;79;20446;-81
2021/08/26 11:53:54;;;;;;;;;;;;;;;19.23;83.38;99085.81;1763396;80;20647;-82
2021/08/26 11:56:19;;;;;;;;;;;;;;;19.29;84.26;99085.66;1736476;80;20139;-82
2021/08/26 11:58:46;;;;;;;;;;;;;;;19.37;84.25;99083.95;1763716;80;20144;-80
2021/08/26 12:01:22;;;;;;;;;;;;;;;19.09;79.66;99083.41;1765196;80;20269;-82
2021/08/26 12:03:53;;;;;;;;;;;;;;;18.99;79.82;99089.38;1767974;80;20174;-81
2021/08/26 12:06:21;;;;;;;;;;;;;;;19.05;78.85;99095.66;1765319;80;21229;-82
2021/08/26 12:08:48;;;;;;;;;;;;;;;19.16;80.05;99088.64;1749088;80;20161;-80
2021/08/26 12:11:26;;;;;;;;;;;;;;;19.20;81.12;99091.11;1765403;79;20135;-80
2021/08/26 12:13:57;;;;;;;;;;;;;;;19.20;80.15;99095.13;1760065;79;20148;-80
2021/08/26 12:16:27;;;;;;;;;;;;;;;19.16;81.08;99095.33;1766921;80;20175;-80
2021/08/26 12:18:52;;;;;;;;;;;;;;;19.10;80.79;99089.06;1765924;79;21128;-78
2021/08/26 12:21:20;;;;;;;;;;;;;;;19.21;81.36;99094.62;1767023;79;20139;-78
2021/08/26 12:23:51;;;;;;;;;;;;;;;19.26;81.52;99092.83;1766156;80;20553;-78
2021/08/26 12:26:21;;;;;;;;;;;;;;;19.40;81.67;99089.88;1763778;79;20196;-77
2021/08/26 12:28:57;;;;;;;;;;;;;;;19.45;82.88;99088.11;1765784;80;20221;-78
2021/08/26 12:31:22;;;;;;;;;;;;;;;19.61;82.13;99089.19;1762335;79;21350;-82
2021/08/26 12:34:12;;;;;;;;;;;;;;;19.62;80.24;99090.78;1766640;79;20576;-79
2021/08/26 12:36:42;;;;;;;;;;;;;;;19.53;79.83;99085.03;1760600;79;20082;-82
2021/08/26 12:39:27;;;;;;;;;;;;;;;19.49;80.29;99093.79;1767981;80;20209;-84
2021/08/26 12:42:04;;;;;;;;;;;;;;;19.44;80.21;99100.40;1768316;79;20265;-83
2021/08/26 12:44:30;;;;;;;;;;;;;;;19.49;79.17;99099.14;1762580;79;21903;-81
2021/08/26 12:46:56;;;;;;;;;;;;;;;19.24;79.46;99094.94;1763358;79;20189;-82